Terminal Aerodrome Forecast
Issued by NWS

Home | Current Version | Previous Version | Text Only | Print | Product List | Glossary On
Versions: 1 2 3 4 5 6 7 8 9 10 11 12 13 14 15 16 17 18 19 20 21 22 23 24 25 26
000
FTUS45 KBOI 281120
TAFTWF
TAF
KTWF 281120Z 2812/2912 20015KT P6SM SKC
     FM281500 25020G30KT P6SM SCT040 BKN090
     FM281800 27025G35KT P6SM SCT060 BKN200
     FM290200 24015KT P6SM SCT200
     FM290600 20010KT P6SM SKC=

USA.gov is the U.S. government's official web portal to all federal, state and local government web resources and services.